• Join FlightAware (Why Join?)
  • Login
  • US Flag 
05:13PM EDT


 

Airport Tracker/Info


-or-


 

Live Flight TrackerFlight Track Log ✈ N3133R ✈ 16-Sep-2013 ✈ KLIT - KHRO

Flight Track Log - Related Links

Times and Time Zones

All times are in EDT time to prevent confusion due to time zone crossing. See the N3133R flight status page for this flight to view local times or setup timezone preferences in your user account.

Time Position Orientation Groundspeed Altitude Reporting Facility
EDT Latitude Longitude Course Direction KTS MPH feet Rate Location/Type
05:12PM 34.7306 -92.2269 23° Northeast 65 75 600  Level Memphis Center
05:13PM 34.7536 -92.2150 23° Northeast 82 94 1,600 660 Climbing Memphis Center
05:15PM 34.7936 -92.1981 19° North 76 87 2,800 540 Climbing Memphis Center
05:16PM 34.8125 -92.1883 23° Northeast 82 94 3,400 660 Climbing Memphis Center
05:17PM 34.8356 -92.1814 14° North 81 93 4,100 660 Climbing Memphis Center
05:18PM 34.8567 -92.1692 25° Northeast 83 96 4,800 660 Climbing Memphis Center
05:19PM 34.8817 -92.1594 18° North 86 99 5,500 660 Climbing Memphis Center
05:20PM 34.9047 -92.1500 19° North 83 96 6,300 600 Climbing Memphis Center
05:21PM 34.9239 -92.1403 23° Northeast 84 97 6,800 540 Climbing Memphis Center
05:22PM 34.9511 -92.1281 20° North 91 105 7,400 480 Climbing Memphis Center
05:23PM 34.9717 -92.1436 328° Northwest 104 120 7,900 300 Climbing Memphis Center
05:24PM 34.9983 -92.1697 321° Northwest 124 143 8,000  Climbing Memphis Center
05:25PM 35.0294 -92.1956 326° Northwest 133 153 7,900 -120 Descending Memphis Center
05:26PM 35.0500 -92.2061 337° Northwest 133 153 7,900  Level Memphis Center
05:26PM 35.0603 -92.2217 309° West 133 153 7,900  Level Memphis Center
05:27PM 35.0789 -92.2322 335° Northwest 133 153 7,900  Level Memphis Center
05:27PM 35.0872 -92.2400 323° Northwest 132 152 7,900  Level Memphis Center
05:28PM 35.1097 -92.2558 330° Northwest 133 153 7,900  Level Memphis Center
05:28PM 35.1181 -92.2636 323° Northwest 129 148 7,900  Level Memphis Center
05:29PM 35.1386 -92.2767 333° Northwest 128 147 7,900  Level Memphis Center
05:30PM 35.1694 -92.3028 325° Northwest 133 153 7,900  Level Memphis Center
05:31PM 35.2006 -92.3264 328° Northwest 133 153 7,900  Level Memphis Center
05:32PM 35.2314 -92.3500 328° Northwest 133 153 8,000  Climbing Memphis Center
05:33PM 35.2644 -92.3736 330° Northwest 133 153 7,900 -60 Descending Memphis Center
05:34PM 35.2953 -92.3972 328° Northwest 138 159 7,900  Level Memphis Center
05:35PM 35.3261 -92.4211 328° Northwest 138 159 7,900 -60 Level Memphis Center
05:36PM 35.3569 -92.4472 325° Northwest 138 159 7,800 -60 Descending Memphis Center
05:37PM 35.3858 -92.4708 326° Northwest 138 159 7,800  Level Memphis Center
05:38PM 35.4167 -92.4944 328° Northwest 133 153 7,800  Level Memphis Center
05:39PM 35.4456 -92.5156 329° Northwest 128 147 7,800  Level Memphis Center
05:40PM 35.4744 -92.5419 323° Northwest 128 147 7,800  Level Memphis Center
05:41PM 35.5053 -92.5656 328° Northwest 123 142 7,800  Level Memphis Center
05:42PM 35.5361 -92.5894 328° Northwest 123 142 7,900  Climbing Memphis Center
05:43PM 35.5628 -92.6131 324° Northwest 123 142 7,800  Descending Memphis Center
05:44PM 35.5917 -92.6344 329° Northwest 123 142 7,900  Climbing Memphis Center
05:45PM 35.6225 -92.6581 328° Northwest 123 142 7,800 -60 Descending Memphis Center
05:46PM 35.6511 -92.6794 329° Northwest 123 142 7,800  Level Memphis Center
05:47PM 35.6800 -92.7033 326° Northwest 123 142 7,800  Level Memphis Center
05:48PM 35.7086 -92.7269 326° Northwest 123 142 7,900  Climbing Memphis Center
05:49PM 35.7394 -92.7508 328° Northwest 123 142 7,900 -180 Level Memphis Center
05:50PM 35.7703 -92.7747 328° Northwest 123 142 7,600 -300 Descending Memphis Center
05:51PM 35.8033 -92.7989 329° Northwest 128 147 7,300 -300 Descending Memphis Center
05:52PM 35.8361 -92.8256 327° Northwest 128 147 7,000 -360 Descending Memphis Center
05:53PM 35.8689 -92.8494 329° Northwest 134 154 6,600 -420 Descending Memphis Center
05:54PM 35.9061 -92.8711 335° Northwest 139 160 6,200 -420 Descending Memphis Center
05:55PM 35.9369 -92.8978 325° Northwest 139 160 5,800 -420 Descending Memphis Center
05:56PM 35.9697 -92.9242 327° Northwest 139 160 5,400 -420 Descending Memphis Center
05:57PM 36.0025 -92.9511 326° Northwest 139 160 5,000 -360 Descending Memphis Center
05:58PM 36.0353 -92.9778 327° Northwest 139 160 4,700 -360 Descending Memphis Center
05:59PM 36.0681 -93.0019 329° Northwest 139 160 4,300 -360 Descending Memphis Center
06:00PM 36.0986 -93.0311 322° Northwest 144 166 4,000 -360 Descending Memphis Center
06:01PM 36.1336 -93.0528 333° Northwest 144 166 3,600 -300 Descending Memphis Center
06:02PM 36.1603 -93.0767 324° Northwest 144 166 3,400 -240 Descending Memphis Center